createdAt,value
2019-03-31T00:01:54.262Z,11.25
2019-03-31T00:04:24.053Z,11.31
2019-03-31T00:06:55.287Z,11.38
2019-03-31T00:09:26.733Z,11.43
2019-03-31T00:11:58.009Z,11.35
2019-03-31T00:14:29.189Z,11.19
2019-03-31T00:17:00.335Z,11.00
2019-03-31T00:19:31.427Z,10.88
2019-03-31T00:22:02.695Z,10.78
2019-03-31T00:24:33.953Z,10.75
2019-03-31T00:27:05.143Z,10.71
2019-03-31T00:29:36.302Z,10.48
2019-03-31T00:32:07.557Z,10.45
2019-03-31T00:34:38.630Z,10.40
2019-03-31T00:37:09.732Z,10.37
2019-03-31T00:39:40.883Z,10.30
2019-03-31T00:42:11.972Z,10.30
2019-03-31T00:44:43.187Z,10.24
2019-03-31T00:47:14.405Z,10.23
2019-03-31T00:49:46.472Z,10.18
2019-03-31T00:52:18.291Z,10.16
2019-03-31T00:54:49.420Z,10.18
2019-03-31T00:57:20.659Z,10.05
2019-03-31T00:59:51.806Z,9.99
2019-03-31T01:02:26.435Z,9.95
2019-03-31T01:04:57.586Z,9.88
2019-03-31T01:07:29.276Z,9.86
2019-03-31T01:10:00.520Z,9.89
2019-03-31T01:12:32.634Z,9.91
2019-03-31T01:15:06.162Z,9.95
2019-03-31T01:17:37.484Z,9.99
2019-03-31T01:20:09.188Z,9.88
2019-03-31T01:22:40.369Z,9.78
2019-03-31T01:25:11.523Z,9.69
2019-03-31T01:27:43.002Z,9.68
2019-03-31T01:30:15.884Z,9.70
2019-03-31T01:32:47.924Z,9.66
2019-03-31T01:35:19.788Z,9.49
2019-03-31T01:37:50.904Z,9.37
2019-03-31T01:40:22.578Z,9.39
2019-03-31T01:42:53.594Z,9.52
2019-03-31T01:45:25.973Z,9.40
2019-03-31T01:47:57.118Z,9.44
2019-03-31T01:50:28.925Z,9.29
2019-03-31T01:52:59.930Z,9.17
2019-03-31T01:55:31.011Z,8.97
2019-03-31T01:58:02.102Z,8.74
2019-03-31T02:00:55.924Z,8.68
2019-03-31T02:03:27.090Z,8.65
2019-03-31T02:05:58.255Z,8.49
2019-03-31T02:08:29.615Z,8.47
2019-03-31T02:11:00.716Z,8.80
2019-03-31T02:13:31.876Z,9.03
2019-03-31T02:16:03.258Z,9.16
2019-03-31T02:18:34.401Z,9.15
2019-03-31T02:21:05.578Z,9.15
2019-03-31T02:23:36.706Z,8.88
2019-03-31T02:26:08.197Z,8.63
2019-03-31T02:28:39.375Z,8.53
2019-03-31T02:31:10.473Z,8.35
2019-03-31T02:33:41.929Z,8.23
2019-03-31T02:36:13.051Z,8.14
2019-03-31T02:38:44.122Z,8.01
2019-03-31T02:41:15.343Z,8.01
2019-03-31T02:43:46.336Z,7.96
2019-03-31T02:46:17.857Z,8.25
2019-03-31T02:48:49.114Z,8.02
2019-03-31T02:51:23.081Z,7.88
2019-03-31T02:53:54.580Z,7.81
2019-03-31T02:56:27.267Z,7.75
2019-03-31T02:59:00.064Z,7.67
2019-03-31T03:01:33.749Z,7.59
2019-03-31T03:04:07.855Z,7.48
2019-03-31T03:06:37.926Z,7.44
2019-03-31T03:09:09.074Z,7.36
2019-03-31T03:11:43.216Z,7.35
2019-03-31T03:14:16.001Z,7.37
2019-03-31T03:16:48.634Z,7.41
2019-03-31T03:19:20.010Z,7.37
2019-03-31T03:21:51.619Z,7.40
2019-03-31T03:24:22.841Z,7.36
2019-03-31T03:26:54.460Z,7.34
2019-03-31T03:29:25.616Z,7.38
2019-03-31T03:31:56.802Z,7.44
2019-03-31T03:34:27.868Z,7.54
2019-03-31T03:36:59.031Z,7.58
2019-03-31T03:39:30.094Z,7.83
2019-03-31T03:42:01.430Z,8.00
2019-03-31T03:44:32.572Z,7.89
2019-03-31T03:47:03.738Z,8.05
2019-03-31T03:49:34.901Z,8.11
2019-03-31T03:52:06.865Z,8.11
2019-03-31T03:54:38.270Z,8.04
2019-03-31T03:57:09.403Z,7.81
2019-03-31T03:59:40.583Z,7.53
2019-03-31T04:02:11.728Z,7.18
2019-03-31T04:04:42.813Z,7.07
2019-03-31T04:07:14.334Z,6.83
2019-03-31T04:09:45.347Z,6.71
2019-03-31T04:12:16.608Z,6.70
2019-03-31T04:14:48.854Z,6.76
2019-03-31T04:17:19.921Z,6.67
2019-03-31T04:19:51.375Z,6.82
2019-03-31T04:22:23.033Z,6.71
2019-03-31T04:24:54.094Z,6.71
2019-03-31T04:27:25.118Z,6.69
2019-03-31T04:29:56.138Z,6.62
2019-03-31T04:32:27.745Z,6.68
2019-03-31T04:34:59.539Z,6.60
2019-03-31T04:37:30.640Z,6.58
2019-03-31T04:40:01.668Z,6.50
2019-03-31T04:42:33.136Z,6.52
2019-03-31T04:45:04.279Z,6.60
2019-03-31T04:47:35.387Z,6.69
2019-03-31T04:50:06.919Z,6.48
2019-03-31T04:52:39.256Z,6.32
2019-03-31T04:55:10.621Z,6.32
2019-03-31T04:57:41.705Z,6.24
2019-03-31T05:00:12.979Z,6.22
2019-03-31T05:02:44.587Z,6.27
2019-03-31T05:05:17.765Z,6.47
2019-03-31T05:07:49.487Z,6.45
2019-03-31T05:10:20.865Z,6.28
2019-03-31T05:12:52.065Z,6.19
2019-03-31T05:15:23.330Z,6.16
2019-03-31T05:17:54.357Z,6.19
2019-03-31T05:20:26.275Z,6.24
2019-03-31T05:22:57.353Z,6.25
2019-03-31T05:25:28.452Z,6.15
2019-03-31T05:27:59.571Z,6.11
2019-03-31T05:30:30.725Z,6.11
2019-03-31T05:33:02.223Z,6.11
2019-03-31T05:35:34.235Z,6.12
2019-03-31T05:38:05.649Z,6.16
2019-03-31T05:40:37.081Z,6.26
2019-03-31T05:43:08.271Z,6.34
2019-03-31T05:45:39.487Z,6.31
2019-03-31T05:48:10.547Z,6.46
2019-03-31T05:50:41.612Z,6.61
2019-03-31T05:53:12.787Z,6.63
2019-03-31T05:55:45.117Z,6.81
2019-03-31T05:58:16.775Z,7.01
2019-03-31T06:00:50.012Z,7.05
2019-03-31T06:03:21.276Z,7.19
2019-03-31T06:05:52.923Z,7.23
2019-03-31T06:08:23.977Z,7.24
2019-03-31T06:10:55.167Z,7.23
2019-03-31T06:13:27.633Z,7.46
2019-03-31T06:15:58.833Z,7.65
2019-03-31T06:18:29.867Z,7.79
2019-03-31T06:21:02.075Z,7.85
2019-03-31T06:23:33.497Z,8.00
2019-03-31T06:26:04.634Z,7.93
2019-03-31T06:28:35.708Z,7.83
2019-03-31T06:31:06.923Z,8.12
2019-03-31T06:33:38.010Z,8.39
2019-03-31T06:36:09.109Z,8.59
2019-03-31T06:38:40.565Z,8.79
2019-03-31T06:41:12.105Z,8.90
2019-03-31T06:43:43.162Z,8.95
2019-03-31T06:46:14.456Z,9.06
2019-03-31T06:48:45.437Z,9.36
2019-03-31T06:51:17.253Z,9.90
2019-03-31T06:53:48.315Z,9.96
2019-03-31T06:56:19.848Z,10.06
2019-03-31T06:58:51.696Z,10.16
2019-03-31T07:01:22.845Z,10.74
2019-03-31T07:03:54.142Z,10.47
2019-03-31T07:06:25.433Z,10.74
2019-03-31T07:08:56.523Z,10.82
2019-03-31T07:11:27.601Z,10.58
2019-03-31T07:13:58.787Z,10.72
2019-03-31T07:16:29.991Z,10.92
2019-03-31T07:19:00.884Z,10.99
2019-03-31T07:21:34.024Z,10.88
2019-03-31T07:26:37.127Z,11.05
2019-03-31T07:29:08.259Z,10.77
2019-03-31T07:31:39.196Z,10.87
2019-03-31T07:34:10.367Z,11.18
2019-03-31T07:36:41.503Z,11.37
2019-03-31T07:39:12.682Z,11.34
2019-03-31T07:41:44.071Z,11.49
2019-03-31T07:44:18.009Z,11.77
2019-03-31T07:46:52.227Z,11.60
2019-03-31T07:49:24.763Z,11.74
2019-03-31T07:51:56.798Z,11.82
2019-03-31T07:54:28.190Z,12.61
2019-03-31T07:56:59.278Z,12.12
2019-03-31T07:59:33.093Z,11.73
2019-03-31T08:02:02.966Z,12.08
2019-03-31T08:04:34.148Z,12.15
2019-03-31T08:07:05.356Z,12.03
2019-03-31T08:09:37.735Z,12.38
2019-03-31T08:12:11.005Z,11.76
2019-03-31T08:14:42.200Z,11.99
2019-03-31T08:17:13.424Z,12.09
2019-03-31T08:19:44.568Z,12.43
2019-03-31T08:22:15.744Z,12.45
2019-03-31T08:24:46.852Z,12.80
2019-03-31T08:27:18.235Z,12.60
2019-03-31T08:29:59.842Z,12.55
2019-03-31T08:32:22.316Z,13.12
2019-03-31T08:34:53.800Z,13.15
2019-03-31T08:37:24.952Z,13.67
2019-03-31T08:39:56.064Z,13.84
2019-03-31T08:42:27.201Z,14.29
2019-03-31T08:44:58.484Z,14.69
2019-03-31T08:47:29.710Z,15.34
2019-03-31T08:50:02.350Z,15.93
2019-03-31T08:52:33.734Z,15.43
2019-03-31T08:55:05.217Z,15.76
2019-03-31T08:57:36.752Z,15.92
2019-03-31T09:00:14.727Z,15.61
2019-03-31T09:02:46.092Z,16.06
2019-03-31T09:05:17.319Z,15.93
2019-03-31T09:07:48.529Z,16.23
2019-03-31T09:10:20.079Z,16.25
2019-03-31T09:12:51.750Z,16.29
2019-03-31T09:15:22.885Z,15.84
2019-03-31T09:17:54.607Z,16.49
2019-03-31T09:20:25.830Z,17.14
2019-03-31T09:22:57.929Z,16.46
2019-03-31T09:25:29.083Z,16.91
2019-03-31T09:28:00.269Z,16.47
2019-03-31T09:30:32.039Z,17.37
2019-03-31T09:33:04.753Z,17.50
2019-03-31T09:35:35.849Z,17.98
2019-03-31T09:38:06.960Z,18.47
2019-03-31T09:40:38.709Z,18.96
2019-03-31T09:43:10.043Z,18.94
2019-03-31T09:45:41.204Z,18.40
2019-03-31T09:48:12.309Z,18.33
2019-03-31T09:50:43.306Z,18.28
2019-03-31T09:53:14.588Z,18.53
2019-03-31T09:55:45.771Z,18.23
2019-03-31T09:58:16.980Z,19.29
2019-03-31T10:00:51.133Z,18.06
2019-03-31T10:03:22.813Z,18.09
2019-03-31T10:05:54.549Z,18.65
2019-03-31T10:08:25.997Z,18.87
2019-03-31T10:10:57.202Z,18.51
2019-03-31T10:13:28.379Z,18.34
2019-03-31T10:16:00.135Z,17.19
2019-03-31T10:18:32.981Z,16.63
2019-03-31T10:21:04.887Z,16.75
2019-03-31T10:23:35.955Z,16.46
2019-03-31T10:26:07.261Z,16.26
2019-03-31T10:28:38.382Z,16.29
2019-03-31T10:31:10.753Z,16.34
2019-03-31T10:33:41.965Z,16.45
2019-03-31T10:36:15.347Z,16.42
2019-03-31T10:38:47.292Z,16.64
2019-03-31T10:41:18.440Z,16.86
2019-03-31T10:43:49.629Z,16.87
2019-03-31T10:46:20.857Z,16.75
2019-03-31T10:48:52.085Z,17.16
2019-03-31T10:51:23.314Z,17.81
2019-03-31T10:53:54.419Z,18.01
2019-03-31T10:56:25.604Z,17.50
2019-03-31T10:58:57.465Z,17.25
2019-03-31T11:01:28.593Z,17.03
2019-03-31T11:03:59.709Z,17.32
2019-03-31T11:06:30.854Z,17.57
2019-03-31T11:09:02.031Z,17.21
2019-03-31T11:11:33.217Z,17.02
2019-03-31T11:14:04.879Z,17.48
2019-03-31T11:16:36.049Z,17.03
2019-03-31T11:19:07.168Z,17.19
2019-03-31T11:21:46.328Z,17.41
2019-03-31T11:24:17.275Z,17.23
2019-03-31T11:26:48.469Z,17.37
2019-03-31T11:29:19.633Z,17.11
2019-03-31T11:31:50.909Z,17.33
2019-03-31T11:34:22.136Z,17.06
2019-03-31T11:36:53.299Z,17.30
2019-03-31T11:39:24.405Z,17.43
2019-03-31T11:41:55.527Z,17.34
2019-03-31T11:44:27.859Z,17.30
2019-03-31T11:46:59.166Z,17.54
2019-03-31T11:49:30.261Z,17.64
2019-03-31T11:52:01.385Z,17.50
2019-03-31T11:54:32.579Z,17.57
2019-03-31T11:57:03.664Z,17.59
2019-03-31T11:59:34.843Z,17.86
2019-03-31T12:02:06.108Z,17.87
2019-03-31T12:04:37.277Z,17.52
2019-03-31T12:07:08.463Z,17.74
2019-03-31T12:09:39.534Z,17.37
2019-03-31T12:12:10.940Z,17.55
2019-03-31T12:14:42.147Z,17.76
2019-03-31T12:17:13.445Z,17.64
2019-03-31T12:19:44.575Z,17.56
2019-03-31T12:22:15.715Z,17.53
2019-03-31T12:24:46.858Z,17.75
2019-03-31T12:27:18.031Z,17.75
2019-03-31T12:29:49.178Z,17.58
2019-03-31T12:32:20.251Z,17.62
2019-03-31T12:34:51.454Z,17.81
2019-03-31T12:37:22.594Z,18.20
2019-03-31T12:39:53.614Z,18.01
2019-03-31T12:42:24.855Z,17.68
2019-03-31T12:44:55.942Z,17.51
2019-03-31T12:47:27.148Z,17.56
2019-03-31T12:49:58.781Z,17.82
2019-03-31T12:52:29.931Z,17.42
2019-03-31T12:55:01.056Z,17.18
2019-03-31T12:57:32.241Z,17.12
2019-03-31T13:00:03.687Z,17.40
2019-03-31T13:02:34.729Z,17.40
2019-03-31T13:05:06.034Z,17.33
2019-03-31T13:07:37.143Z,17.29
2019-03-31T13:10:08.342Z,17.26
2019-03-31T13:12:39.455Z,17.20
2019-03-31T13:15:10.838Z,17.33
2019-03-31T13:17:42.116Z,17.20
2019-03-31T13:20:13.704Z,17.11
2019-03-31T13:22:46.078Z,17.30
2019-03-31T13:25:17.518Z,17.19
2019-03-31T13:27:48.577Z,17.32
2019-03-31T13:30:21.961Z,17.54
2019-03-31T13:32:52.908Z,17.60
2019-03-31T13:35:23.968Z,17.45
2019-03-31T13:37:55.135Z,17.35
2019-03-31T13:40:26.269Z,17.62
2019-03-31T13:42:57.384Z,17.80
2019-03-31T13:45:28.875Z,17.73
2019-03-31T13:48:00.083Z,17.86
2019-03-31T13:50:31.216Z,17.78
2019-03-31T13:53:02.398Z,17.56
2019-03-31T13:55:33.590Z,17.83
2019-03-31T13:58:06.139Z,17.92
2019-03-31T14:00:43.139Z,17.97
2019-03-31T14:03:14.566Z,18.15
2019-03-31T14:05:45.731Z,18.07
2019-03-31T14:08:25.459Z,17.80
2019-03-31T14:10:50.286Z,17.89
2019-03-31T14:13:21.349Z,17.65
2019-03-31T14:15:52.534Z,17.76
2019-03-31T14:18:24.038Z,17.65
2019-03-31T14:20:55.403Z,17.77
2019-03-31T14:23:26.534Z,17.65
2019-03-31T14:25:57.837Z,17.53
2019-03-31T14:28:29.006Z,17.43
2019-03-31T14:31:00.569Z,17.48
2019-03-31T14:33:31.723Z,17.47
2019-03-31T14:36:02.941Z,17.49
2019-03-31T14:38:40.527Z,16.98
2019-03-31T14:41:07.672Z,16.80
2019-03-31T14:43:38.781Z,16.69
2019-03-31T14:46:10.644Z,16.62
2019-03-31T14:48:41.832Z,16.56
2019-03-31T14:51:13.286Z,16.38
2019-03-31T14:53:44.518Z,16.25
2019-03-31T14:56:15.745Z,15.89
2019-03-31T14:58:46.867Z,15.84
2019-03-31T15:01:21.154Z,15.58
2019-03-31T15:03:50.851Z,15.62
2019-03-31T15:06:22.552Z,15.38
2019-03-31T15:08:54.807Z,15.46
2019-03-31T15:11:26.085Z,15.39
2019-03-31T15:13:57.283Z,15.37
2019-03-31T15:16:28.475Z,15.41
2019-03-31T15:18:59.774Z,15.24
2019-03-31T15:21:31.655Z,15.25
2019-03-31T15:24:02.986Z,15.13
2019-03-31T15:26:34.235Z,15.02
2019-03-31T15:29:05.711Z,14.95
2019-03-31T15:31:36.940Z,14.84
2019-03-31T15:34:08.075Z,14.83
2019-03-31T15:36:39.499Z,14.75
2019-03-31T15:39:11.079Z,14.78
2019-03-31T15:41:42.745Z,14.72
2019-03-31T15:44:16.491Z,14.64
2019-03-31T15:46:46.512Z,14.61
2019-03-31T15:49:18.942Z,14.51
2019-03-31T15:51:50.429Z,14.49
2019-03-31T15:54:21.657Z,14.44
2019-03-31T15:56:55.243Z,14.41
2019-03-31T15:59:26.914Z,14.31
2019-03-31T16:01:58.086Z,14.18
2019-03-31T16:04:29.204Z,14.10
2019-03-31T16:07:00.419Z,14.06
2019-03-31T16:09:30.749Z,13.97
2019-03-31T16:12:01.086Z,13.96
2019-03-31T16:14:31.585Z,13.91
2019-03-31T16:17:02.426Z,13.89
2019-03-31T16:19:33.066Z,13.81
2019-03-31T16:22:03.311Z,13.78
2019-03-31T16:24:42.283Z,13.73
2019-03-31T16:27:12.890Z,13.71
2019-03-31T16:29:43.152Z,13.68
2019-03-31T16:32:13.821Z,13.68
2019-03-31T16:34:44.004Z,13.66
2019-03-31T16:37:14.310Z,13.63
2019-03-31T16:39:44.612Z,13.61
2019-03-31T16:42:15.195Z,13.58
2019-03-31T16:44:57.447Z,13.57
2019-03-31T16:47:18.299Z,13.58
2019-03-31T16:49:48.640Z,13.61
2019-03-31T16:52:20.064Z,13.62
2019-03-31T16:54:50.914Z,13.58
2019-03-31T16:57:21.442Z,13.55
2019-03-31T16:59:51.727Z,13.51
2019-03-31T17:02:22.055Z,13.49
2019-03-31T17:04:52.356Z,13.47
2019-03-31T17:07:23.104Z,13.39
2019-03-31T17:09:53.528Z,13.33
2019-03-31T17:12:23.870Z,13.30
2019-03-31T17:14:54.723Z,13.27
2019-03-31T17:17:26.033Z,13.19
2019-03-31T17:19:56.412Z,13.11
2019-03-31T17:22:26.745Z,12.98
2019-03-31T17:24:57.290Z,12.89
2019-03-31T17:27:27.738Z,12.79
2019-03-31T17:29:58.054Z,12.67
2019-03-31T17:32:28.541Z,12.55
2019-03-31T17:34:59.120Z,12.45
2019-03-31T17:37:29.579Z,12.38
2019-03-31T17:40:06.544Z,12.32
2019-03-31T17:42:32.059Z,12.21
2019-03-31T17:45:02.225Z,12.10
2019-03-31T17:47:33.208Z,12.09
2019-03-31T17:50:03.710Z,11.95
2019-03-31T17:52:34.011Z,11.92
2019-03-31T17:55:06.076Z,11.83
2019-03-31T17:57:36.478Z,11.77
2019-03-31T18:00:09.187Z,11.67
2019-03-31T18:02:39.507Z,11.59
2019-03-31T18:05:10.302Z,11.51
2019-03-31T18:07:40.570Z,11.48
2019-03-31T18:10:20.660Z,11.33
2019-03-31T18:12:43.201Z,11.27
2019-03-31T18:15:14.073Z,11.26
2019-03-31T18:17:44.455Z,11.24
2019-03-31T18:20:14.822Z,11.18
2019-03-31T18:22:45.115Z,11.10
2019-03-31T18:25:16.715Z,11.01
2019-03-31T18:27:47.047Z,10.87
2019-03-31T18:30:17.932Z,10.86
2019-03-31T18:32:48.619Z,10.81
2019-03-31T18:35:19.030Z,10.81
2019-03-31T18:37:49.632Z,10.74
2019-03-31T18:40:34.330Z,10.64
2019-03-31T18:42:53.026Z,10.67
2019-03-31T18:45:23.340Z,10.57
2019-03-31T18:47:53.637Z,10.54
2019-03-31T18:50:23.931Z,10.53
2019-03-31T18:52:54.636Z,10.47
2019-03-31T18:55:51.901Z,10.41
2019-03-31T18:58:43.989Z,10.34
2019-03-31T19:01:26.853Z,10.29
2019-03-31T19:04:14.851Z,10.33
2019-03-31T19:07:03.934Z,10.24
2019-03-31T19:09:51.829Z,10.25
2019-03-31T19:12:39.877Z,10.21
2019-03-31T19:15:29.306Z,10.22
2019-03-31T19:18:30.873Z,10.17
2019-03-31T19:21:22.332Z,10.11
2019-03-31T19:24:05.495Z,10.14
2019-03-31T19:26:53.340Z,10.05
2019-03-31T19:30:00.759Z,9.97
2019-03-31T19:32:47.595Z,9.80
2019-03-31T19:35:33.328Z,9.86
2019-03-31T19:38:14.268Z,9.88
2019-03-31T19:41:03.362Z,9.96
2019-03-31T19:43:52.494Z,9.82
2019-03-31T19:46:42.509Z,9.83
2019-03-31T19:49:27.092Z,9.72
2019-03-31T19:52:31.072Z,9.64
2019-03-31T19:55:23.451Z,9.64
2019-03-31T19:58:04.553Z,9.50
2019-03-31T20:00:43.697Z,9.52
2019-03-31T20:03:29.788Z,9.59
2019-03-31T20:06:17.732Z,9.57
2019-03-31T20:08:53.887Z,9.56
2019-03-31T20:11:49.547Z,9.50
2019-03-31T20:14:42.830Z,9.39
2019-03-31T20:17:32.071Z,9.35
2019-03-31T20:20:20.640Z,9.43
2019-03-31T20:23:12.875Z,9.33
2019-03-31T20:26:04.854Z,9.32
2019-03-31T20:28:48.595Z,9.26
2019-03-31T20:31:37.847Z,9.24
2019-03-31T20:34:29.849Z,9.13
2019-03-31T20:37:17.853Z,9.15
2019-03-31T20:40:10.230Z,9.17
2019-03-31T20:43:02.495Z,9.08
2019-03-31T20:45:33.933Z,9.00
2019-03-31T20:48:04.272Z,9.00
2019-03-31T20:50:34.688Z,8.95
2019-03-31T20:53:05.022Z,8.94
2019-03-31T20:55:35.424Z,8.87
2019-03-31T20:58:05.813Z,8.83
2019-03-31T21:00:36.438Z,8.81
2019-03-31T21:03:07.429Z,8.83
2019-03-31T21:05:38.106Z,8.81
2019-03-31T21:08:08.479Z,8.75
2019-03-31T21:10:38.704Z,8.69
2019-03-31T21:13:09.091Z,8.62
2019-03-31T21:15:39.463Z,8.64
2019-03-31T21:18:09.863Z,8.57
2019-03-31T21:20:40.574Z,8.64
2019-03-31T21:23:10.869Z,8.50
2019-03-31T21:25:41.188Z,8.41
2019-03-31T21:28:11.576Z,8.50
2019-03-31T21:30:41.884Z,8.46
2019-03-31T21:33:12.567Z,8.29
2019-03-31T21:35:43.148Z,8.26
2019-03-31T21:38:13.441Z,8.32
2019-03-31T21:40:43.723Z,8.18
2019-03-31T21:43:14.048Z,8.12
2019-03-31T21:45:45.454Z,8.07
2019-03-31T21:48:15.779Z,8.01
2019-03-31T21:50:46.225Z,7.99
2019-03-31T21:53:16.530Z,7.96
2019-03-31T21:55:46.994Z,7.95
2019-03-31T21:58:17.369Z,7.94
2019-03-31T22:00:57.451Z,7.87
2019-03-31T22:03:28.298Z,7.79
2019-03-31T22:05:58.734Z,7.69
2019-03-31T22:08:29.040Z,7.73
2019-03-31T22:10:59.369Z,7.67
2019-03-31T22:13:29.748Z,7.68
2019-03-31T22:16:00.019Z,7.75
2019-03-31T22:18:30.404Z,7.72
2019-03-31T22:21:00.719Z,7.67
2019-03-31T22:23:31.049Z,7.69
2019-03-31T22:26:01.365Z,7.65
2019-03-31T22:28:32.394Z,7.60
2019-03-31T22:31:02.912Z,7.54
2019-03-31T22:33:33.224Z,7.44
2019-03-31T22:36:21.979Z,7.38
2019-03-31T22:38:55.015Z,7.38
2019-03-31T22:41:25.530Z,7.30
2019-03-31T22:43:56.108Z,7.37
2019-03-31T22:46:26.479Z,7.39
2019-03-31T22:48:57.170Z,7.33
2019-03-31T22:51:27.541Z,7.23
2019-03-31T22:53:57.880Z,7.17
2019-03-31T22:56:28.863Z,7.14
2019-03-31T22:58:59.339Z,7.06
2019-03-31T23:01:29.713Z,7.01
2019-03-31T23:04:00.037Z,6.97
2019-03-31T23:06:30.438Z,6.90
2019-03-31T23:09:00.771Z,6.83
2019-03-31T23:11:31.166Z,6.77
2019-03-31T23:14:01.484Z,6.78
2019-03-31T23:16:32.171Z,6.73
2019-03-31T23:19:02.481Z,6.73
2019-03-31T23:21:32.821Z,6.73
2019-03-31T23:24:03.151Z,6.81
2019-03-31T23:26:33.832Z,6.79
2019-03-31T23:29:04.145Z,6.77
2019-03-31T23:31:34.679Z,6.77
2019-03-31T23:34:05.196Z,6.73
2019-03-31T23:36:35.596Z,6.69
2019-03-31T23:39:08.209Z,6.65
2019-03-31T23:41:38.668Z,6.63
2019-03-31T23:44:08.938Z,6.63
2019-03-31T23:46:39.488Z,6.59
2019-03-31T23:49:09.798Z,6.59
2019-03-31T23:51:40.140Z,6.51
2019-03-31T23:54:10.468Z,6.54
2019-03-31T23:56:41.417Z,6.40
2019-03-31T23:59:11.735Z,6.31
